sensor_id;sensor_type;location;lat;lon;timestamp;P1;durP1;ratioP1;P2;durP2;ratioP2
73684;SDS011;61985;51.070;14.064;2022-11-20T00:09:01;14.93;;;8.10;;
73684;SDS011;61985;51.070;14.064;2022-11-20T00:11:30;22.67;;;9.63;;
73684;SDS011;61985;51.070;14.064;2022-11-20T00:14:00;29.63;;;9.53;;
73684;SDS011;61985;51.070;14.064;2022-11-20T00:16:30;26.93;;;10.67;;
73684;SDS011;61985;51.070;14.064;2022-11-20T00:18:56;23.33;;;8.87;;
73684;SDS011;61985;51.070;14.064;2022-11-20T00:21:23;21.40;;;9.90;;
73684;SDS011;61985;51.070;14.064;2022-11-20T00:23:55;22.97;;;9.53;;
73684;SDS011;61985;51.070;14.064;2022-11-20T00:26:23;20.07;;;9.67;;
73684;SDS011;61985;51.070;14.064;2022-11-20T00:29:00;20.33;;;7.87;;
73684;SDS011;61985;51.070;14.064;2022-11-20T00:31:26;22.70;;;9.03;;
73684;SDS011;61985;51.070;14.064;2022-11-20T00:33:52;19.97;;;8.80;;
73684;SDS011;61985;51.070;14.064;2022-11-20T00:36:19;18.73;;;8.00;;
73684;SDS011;61985;51.070;14.064;2022-11-20T00:38:46;19.87;;;8.03;;
73684;SDS011;61985;51.070;14.064;2022-11-20T00:41:15;22.00;;;8.17;;
73684;SDS011;61985;51.070;14.064;2022-11-20T00:43:41;26.20;;;10.70;;
73684;SDS011;61985;51.070;14.064;2022-11-20T00:46:08;20.00;;;7.77;;
73684;SDS011;61985;51.070;14.064;2022-11-20T00:48:37;18.30;;;9.50;;
73684;SDS011;61985;51.070;14.064;2022-11-20T00:51:05;19.03;;;7.70;;
73684;SDS011;61985;51.070;14.064;2022-11-20T00:53:31;15.20;;;7.70;;
73684;SDS011;61985;51.070;14.064;2022-11-20T00:56:04;23.87;;;8.47;;
73684;SDS011;61985;51.070;14.064;2022-11-20T00:58:32;20.47;;;9.03;;
73684;SDS011;61985;51.070;14.064;2022-11-20T01:03:30;15.97;;;7.27;;
73684;SDS011;61985;51.070;14.064;2022-11-20T01:06:04;20.00;;;7.87;;
73684;SDS011;61985;51.070;14.064;2022-11-20T01:08:35;23.07;;;8.93;;
73684;SDS011;61985;51.070;14.064;2022-11-20T01:11:01;21.03;;;9.47;;
73684;SDS011;61985;51.070;14.064;2022-11-20T01:13:29;27.33;;;10.37;;
73684;SDS011;61985;51.070;14.064;2022-11-20T01:23:52;19.97;;;7.73;;
73684;SDS011;61985;51.070;14.064;2022-11-20T01:26:20;20.90;;;8.53;;
73684;SDS011;61985;51.070;14.064;2022-11-20T01:28:47;18.63;;;7.87;;
73684;SDS011;61985;51.070;14.064;2022-11-20T01:31:18;21.20;;;9.03;;
73684;SDS011;61985;51.070;14.064;2022-11-20T01:33:44;19.17;;;8.93;;
73684;SDS011;61985;51.070;14.064;2022-11-20T01:36:11;16.77;;;7.17;;
73684;SDS011;61985;51.070;14.064;2022-11-20T01:38:38;18.43;;;8.43;;
73684;SDS011;61985;51.070;14.064;2022-11-20T01:41:04;19.83;;;8.13;;
73684;SDS011;61985;51.070;14.064;2022-11-20T01:43:35;19.63;;;8.80;;
73684;SDS011;61985;51.070;14.064;2022-11-20T01:46:19;19.13;;;7.90;;
73684;SDS011;61985;51.070;14.064;2022-11-20T01:48:47;18.15;;;8.85;;
73684;SDS011;61985;51.070;14.064;2022-11-20T01:51:38;17.90;;;7.33;;
73684;SDS011;61985;51.070;14.064;2022-11-20T01:54:08;22.70;;;8.90;;
73684;SDS011;61985;51.070;14.064;2022-11-20T01:56:40;15.50;;;7.20;;
73684;SDS011;61985;51.070;14.064;2022-11-20T01:59:07;22.73;;;8.90;;
73684;SDS011;61985;51.070;14.064;2022-11-20T02:01:35;22.93;;;8.60;;
73684;SDS011;61985;51.070;14.064;2022-11-20T02:04:00;18.87;;;7.63;;
73684;SDS011;61985;51.070;14.064;2022-11-20T02:06:31;17.77;;;7.17;;
73684;SDS011;61985;51.070;14.064;2022-11-20T02:09:01;16.67;;;7.27;;
73684;SDS011;61985;51.070;14.064;2022-11-20T02:11:26;23.00;;;9.53;;
73684;SDS011;61985;51.070;14.064;2022-11-20T02:13:52;16.73;;;7.57;;
73684;SDS011;61985;51.070;14.064;2022-11-20T02:16:37;22.90;;;8.43;;
73684;SDS011;61985;51.070;14.064;2022-11-20T02:19:09;19.90;;;7.03;;
73684;SDS011;61985;51.070;14.064;2022-11-20T02:21:58;16.67;;;6.77;;
73684;SDS011;61985;51.070;14.064;2022-11-20T02:24:54;19.67;;;7.47;;
73684;SDS011;61985;51.070;14.064;2022-11-20T02:27:20;16.60;;;7.80;;
73684;SDS011;61985;51.070;14.064;2022-11-20T02:32:32;21.17;;;8.03;;
73684;SDS011;61985;51.070;14.064;2022-11-20T02:37:46;20.23;;;7.83;;
73684;SDS011;61985;51.070;14.064;2022-11-20T02:40:13;19.53;;;7.83;;
73684;SDS011;61985;51.070;14.064;2022-11-20T02:42:39;16.20;;;7.70;;
73684;SDS011;61985;51.070;14.064;2022-11-20T02:45:07;21.03;;;10.00;;
73684;SDS011;61985;51.070;14.064;2022-11-20T02:47:33;18.07;;;7.83;;
73684;SDS011;61985;51.070;14.064;2022-11-20T02:49:59;18.63;;;7.50;;
73684;SDS011;61985;51.070;14.064;2022-11-20T02:52:25;21.87;;;8.47;;
73684;SDS011;61985;51.070;14.064;2022-11-20T02:54:51;21.77;;;9.47;;
73684;SDS011;61985;51.070;14.064;2022-11-20T02:57:22;18.00;;;7.75;;
73684;SDS011;61985;51.070;14.064;2022-11-20T02:59:47;19.87;;;8.33;;
73684;SDS011;61985;51.070;14.064;2022-11-20T03:02:13;23.37;;;8.80;;
73684;SDS011;61985;51.070;14.064;2022-11-20T03:04:41;18.17;;;8.37;;
73684;SDS011;61985;51.070;14.064;2022-11-20T03:07:12;18.20;;;9.17;;
73684;SDS011;61985;51.070;14.064;2022-11-20T03:09:37;21.13;;;9.20;;
73684;SDS011;61985;51.070;14.064;2022-11-20T03:12:03;15.87;;;7.13;;
73684;SDS011;61985;51.070;14.064;2022-11-20T03:14:28;17.50;;;8.23;;
73684;SDS011;61985;51.070;14.064;2022-11-20T03:16:54;19.53;;;7.70;;
73684;SDS011;61985;51.070;14.064;2022-11-20T03:19:20;21.07;;;8.77;;
73684;SDS011;61985;51.070;14.064;2022-11-20T03:21:46;20.23;;;8.37;;
73684;SDS011;61985;51.070;14.064;2022-11-20T03:24:12;18.00;;;8.53;;
73684;SDS011;61985;51.070;14.064;2022-11-20T03:26:38;20.97;;;9.50;;
73684;SDS011;61985;51.070;14.064;2022-11-20T03:29:04;21.87;;;9.77;;
73684;SDS011;61985;51.070;14.064;2022-11-20T03:31:31;18.43;;;8.67;;
73684;SDS011;61985;51.070;14.064;2022-11-20T03:34:00;19.37;;;8.47;;
73684;SDS011;61985;51.070;14.064;2022-11-20T03:36:26;20.97;;;7.00;;
73684;SDS011;61985;51.070;14.064;2022-11-20T03:38:53;20.13;;;9.33;;
73684;SDS011;61985;51.070;14.064;2022-11-20T03:41:20;20.77;;;9.47;;
73684;SDS011;61985;51.070;14.064;2022-11-20T03:43:50;20.73;;;9.23;;
73684;SDS011;61985;51.070;14.064;2022-11-20T03:46:17;21.33;;;9.40;;
73684;SDS011;61985;51.070;14.064;2022-11-20T03:48:46;23.57;;;10.43;;
73684;SDS011;61985;51.070;14.064;2022-11-20T03:53:39;22.07;;;9.27;;
73684;SDS011;61985;51.070;14.064;2022-11-20T03:56:06;22.30;;;10.60;;
73684;SDS011;61985;51.070;14.064;2022-11-20T03:58:33;24.00;;;9.47;;
73684;SDS011;61985;51.070;14.064;2022-11-20T04:01:08;27.13;;;11.23;;
73684;SDS011;61985;51.070;14.064;2022-11-20T04:03:36;20.20;;;9.73;;
73684;SDS011;61985;51.070;14.064;2022-11-20T04:06:08;21.58;;;9.63;;
73684;SDS011;61985;51.070;14.064;2022-11-20T04:08:35;21.73;;;9.83;;
73684;SDS011;61985;51.070;14.064;2022-11-20T04:11:12;19.23;;;8.67;;
73684;SDS011;61985;51.070;14.064;2022-11-20T04:13:38;19.97;;;9.10;;
73684;SDS011;61985;51.070;14.064;2022-11-20T04:16:08;27.13;;;11.20;;
73684;SDS011;61985;51.070;14.064;2022-11-20T04:18:34;27.20;;;10.47;;
73684;SDS011;61985;51.070;14.064;2022-11-20T04:21:00;21.67;;;10.10;;
73684;SDS011;61985;51.070;14.064;2022-11-20T04:23:26;22.27;;;10.77;;
73684;SDS011;61985;51.070;14.064;2022-11-20T04:25:54;24.20;;;9.60;;
73684;SDS011;61985;51.070;14.064;2022-11-20T04:28:26;22.83;;;9.73;;
73684;SDS011;61985;51.070;14.064;2022-11-20T04:30:51;20.77;;;8.77;;
73684;SDS011;61985;51.070;14.064;2022-11-20T04:33:17;25.77;;;10.00;;
73684;SDS011;61985;51.070;14.064;2022-11-20T04:35:45;23.20;;;9.80;;
73684;SDS011;61985;51.070;14.064;2022-11-20T04:38:12;24.60;;;10.73;;
73684;SDS011;61985;51.070;14.064;2022-11-20T04:40:38;22.23;;;9.27;;
73684;SDS011;61985;51.070;14.064;2022-11-20T04:43:03;22.97;;;9.23;;
73684;SDS011;61985;51.070;14.064;2022-11-20T04:45:29;22.70;;;9.53;;
73684;SDS011;61985;51.070;14.064;2022-11-20T04:47:55;19.67;;;9.17;;
73684;SDS011;61985;51.070;14.064;2022-11-20T04:50:20;25.67;;;10.53;;
73684;SDS011;61985;51.070;14.064;2022-11-20T04:52:46;21.97;;;10.63;;
73684;SDS011;61985;51.070;14.064;2022-11-20T04:55:11;23.17;;;10.03;;
73684;SDS011;61985;51.070;14.064;2022-11-20T04:57:37;18.83;;;8.97;;
73684;SDS011;61985;51.070;14.064;2022-11-20T05:00:03;18.73;;;9.37;;
73684;SDS011;61985;51.070;14.064;2022-11-20T05:02:30;27.73;;;9.97;;
73684;SDS011;61985;51.070;14.064;2022-11-20T05:04:56;26.07;;;10.37;;
73684;SDS011;61985;51.070;14.064;2022-11-20T05:07:24;26.40;;;9.87;;
73684;SDS011;61985;51.070;14.064;2022-11-20T05:09:52;28.93;;;9.43;;
73684;SDS011;61985;51.070;14.064;2022-11-20T05:12:18;26.20;;;11.53;;
73684;SDS011;61985;51.070;14.064;2022-11-20T05:14:43;30.13;;;11.23;;
73684;SDS011;61985;51.070;14.064;2022-11-20T05:17:11;26.07;;;10.40;;
73684;SDS011;61985;51.070;14.064;2022-11-20T05:19:37;22.93;;;10.27;;
73684;SDS011;61985;51.070;14.064;2022-11-20T05:22:04;27.13;;;11.40;;
73684;SDS011;61985;51.070;14.064;2022-11-20T05:24:38;25.90;;;11.10;;
73684;SDS011;61985;51.070;14.064;2022-11-20T05:27:04;33.00;;;10.67;;
73684;SDS011;61985;51.070;14.064;2022-11-20T05:29:29;25.70;;;11.23;;
73684;SDS011;61985;51.070;14.064;2022-11-20T05:31:55;29.90;;;12.03;;
73684;SDS011;61985;51.070;14.064;2022-11-20T05:34:34;23.30;;;11.10;;
73684;SDS011;61985;51.070;14.064;2022-11-20T05:36:59;28.13;;;10.40;;
73684;SDS011;61985;51.070;14.064;2022-11-20T05:39:25;22.57;;;10.43;;
73684;SDS011;61985;51.070;14.064;2022-11-20T05:41:50;23.93;;;11.13;;
73684;SDS011;61985;51.070;14.064;2022-11-20T05:44:36;29.30;;;11.47;;
73684;SDS011;61985;51.070;14.064;2022-11-20T05:47:01;21.33;;;9.83;;
73684;SDS011;61985;51.070;14.064;2022-11-20T05:49:30;26.20;;;11.87;;
73684;SDS011;61985;51.070;14.064;2022-11-20T05:51:58;25.77;;;11.93;;
73684;SDS011;61985;51.070;14.064;2022-11-20T05:54:29;23.90;;;11.23;;
73684;SDS011;61985;51.070;14.064;2022-11-20T05:57:03;29.60;;;11.73;;
73684;SDS011;61985;51.070;14.064;2022-11-20T05:59:29;26.33;;;11.87;;
73684;SDS011;61985;51.070;14.064;2022-11-20T06:01:54;28.17;;;11.73;;
73684;SDS011;61985;51.070;14.064;2022-11-20T06:04:20;29.80;;;12.30;;
73684;SDS011;61985;51.070;14.064;2022-11-20T06:06:54;26.43;;;10.87;;
73684;SDS011;61985;51.070;14.064;2022-11-20T06:09:35;28.97;;;12.87;;
73684;SDS011;61985;51.070;14.064;2022-11-20T06:12:00;28.60;;;12.90;;
73684;SDS011;61985;51.070;14.064;2022-11-20T06:14:26;27.60;;;10.77;;
73684;SDS011;61985;51.070;14.064;2022-11-20T06:16:51;28.37;;;12.00;;
73684;SDS011;61985;51.070;14.064;2022-11-20T06:19:17;29.37;;;11.10;;
73684;SDS011;61985;51.070;14.064;2022-11-20T06:21:42;25.83;;;11.47;;
73684;SDS011;61985;51.070;14.064;2022-11-20T06:24:11;26.70;;;11.03;;
73684;SDS011;61985;51.070;14.064;2022-11-20T06:26:37;26.30;;;12.07;;
73684;SDS011;61985;51.070;14.064;2022-11-20T06:29:02;26.07;;;10.87;;
73684;SDS011;61985;51.070;14.064;2022-11-20T06:31:28;24.93;;;11.43;;
73684;SDS011;61985;51.070;14.064;2022-11-20T06:33:53;22.43;;;9.97;;
73684;SDS011;61985;51.070;14.064;2022-11-20T06:36:20;23.63;;;10.30;;
73684;SDS011;61985;51.070;14.064;2022-11-20T06:38:46;23.30;;;10.10;;
73684;SDS011;61985;51.070;14.064;2022-11-20T06:41:14;29.00;;;12.10;;
73684;SDS011;61985;51.070;14.064;2022-11-20T06:43:41;26.43;;;11.57;;
73684;SDS011;61985;51.070;14.064;2022-11-20T06:46:08;26.10;;;12.03;;
73684;SDS011;61985;51.070;14.064;2022-11-20T06:48:34;22.87;;;10.80;;
73684;SDS011;61985;51.070;14.064;2022-11-20T06:51:00;25.83;;;11.30;;
73684;SDS011;61985;51.070;14.064;2022-11-20T06:53:29;24.97;;;11.20;;
73684;SDS011;61985;51.070;14.064;2022-11-20T06:55:55;24.73;;;11.87;;
73684;SDS011;61985;51.070;14.064;2022-11-20T06:58:22;33.00;;;12.07;;
73684;SDS011;61985;51.070;14.064;2022-11-20T07:00:47;26.90;;;12.17;;
73684;SDS011;61985;51.070;14.064;2022-11-20T07:03:13;26.27;;;10.37;;
73684;SDS011;61985;51.070;14.064;2022-11-20T07:05:38;30.30;;;14.07;;
73684;SDS011;61985;51.070;14.064;2022-11-20T07:08:05;24.67;;;11.70;;
73684;SDS011;61985;51.070;14.064;2022-11-20T07:10:31;31.43;;;11.60;;
73684;SDS011;61985;51.070;14.064;2022-11-20T07:12:56;24.27;;;10.83;;
73684;SDS011;61985;51.070;14.064;2022-11-20T07:15:23;27.83;;;11.67;;
73684;SDS011;61985;51.070;14.064;2022-11-20T07:17:49;28.43;;;11.43;;
73684;SDS011;61985;51.070;14.064;2022-11-20T07:20:15;25.03;;;12.23;;
73684;SDS011;61985;51.070;14.064;2022-11-20T07:22:41;26.33;;;11.93;;
73684;SDS011;61985;51.070;14.064;2022-11-20T07:25:07;31.50;;;10.67;;
73684;SDS011;61985;51.070;14.064;2022-11-20T07:27:34;24.13;;;12.03;;
73684;SDS011;61985;51.070;14.064;2022-11-20T07:29:59;27.00;;;11.00;;
73684;SDS011;61985;51.070;14.064;2022-11-20T07:32:25;25.93;;;10.47;;
73684;SDS011;61985;51.070;14.064;2022-11-20T07:34:53;25.17;;;10.00;;
73684;SDS011;61985;51.070;14.064;2022-11-20T07:37:19;37.20;;;12.83;;
73684;SDS011;61985;51.070;14.064;2022-11-20T07:39:44;26.87;;;11.67;;
73684;SDS011;61985;51.070;14.064;2022-11-20T07:42:10;23.67;;;9.43;;
73684;SDS011;61985;51.070;14.064;2022-11-20T07:44:37;26.83;;;10.50;;
73684;SDS011;61985;51.070;14.064;2022-11-20T07:47:03;20.93;;;7.93;;
73684;SDS011;61985;51.070;14.064;2022-11-20T07:52:03;23.97;;;10.60;;
73684;SDS011;61985;51.070;14.064;2022-11-20T07:54:29;22.87;;;10.07;;
73684;SDS011;61985;51.070;14.064;2022-11-20T07:56:54;22.30;;;9.70;;
73684;SDS011;61985;51.070;14.064;2022-11-20T07:59:20;20.13;;;8.90;;
73684;SDS011;61985;51.070;14.064;2022-11-20T08:01:45;20.90;;;8.40;;
73684;SDS011;61985;51.070;14.064;2022-11-20T08:04:11;24.90;;;9.40;;
73684;SDS011;61985;51.070;14.064;2022-11-20T08:06:36;20.70;;;9.13;;
73684;SDS011;61985;51.070;14.064;2022-11-20T08:09:02;25.77;;;10.73;;
73684;SDS011;61985;51.070;14.064;2022-11-20T08:11:28;20.60;;;10.07;;
73684;SDS011;61985;51.070;14.064;2022-11-20T08:14:12;21.07;;;8.27;;
73684;SDS011;61985;51.070;14.064;2022-11-20T08:16:40;26.47;;;9.27;;
73684;SDS011;61985;51.070;14.064;2022-11-20T08:19:07;19.63;;;8.03;;
73684;SDS011;61985;51.070;14.064;2022-11-20T08:21:33;21.93;;;8.63;;
73684;SDS011;61985;51.070;14.064;2022-11-20T08:23:59;21.40;;;9.13;;
73684;SDS011;61985;51.070;14.064;2022-11-20T08:26:25;27.10;;;11.10;;
73684;SDS011;61985;51.070;14.064;2022-11-20T08:28:57;19.80;;;9.00;;
73684;SDS011;61985;51.070;14.064;2022-11-20T08:31:23;22.92;;;9.30;;
73684;SDS011;61985;51.070;14.064;2022-11-20T08:33:49;19.60;;;7.87;;
73684;SDS011;61985;51.070;14.064;2022-11-20T08:36:15;18.30;;;8.30;;
73684;SDS011;61985;51.070;14.064;2022-11-20T08:38:46;18.93;;;8.20;;
73684;SDS011;61985;51.070;14.064;2022-11-20T08:41:13;17.27;;;6.37;;
73684;SDS011;61985;51.070;14.064;2022-11-20T08:43:56;15.20;;;6.40;;
73684;SDS011;61985;51.070;14.064;2022-11-20T08:46:24;16.73;;;7.83;;
73684;SDS011;61985;51.070;14.064;2022-11-20T08:51:26;17.83;;;7.40;;
73684;SDS011;61985;51.070;14.064;2022-11-20T08:53:52;18.07;;;7.10;;
73684;SDS011;61985;51.070;14.064;2022-11-20T08:56:17;16.77;;;6.93;;
73684;SDS011;61985;51.070;14.064;2022-11-20T08:58:43;21.13;;;8.23;;
73684;SDS011;61985;51.070;14.064;2022-11-20T09:01:08;19.47;;;8.30;;
73684;SDS011;61985;51.070;14.064;2022-11-20T09:03:34;17.47;;;7.00;;
73684;SDS011;61985;51.070;14.064;2022-11-20T09:06:00;15.97;;;6.90;;
73684;SDS011;61985;51.070;14.064;2022-11-20T09:08:27;16.13;;;7.57;;
73684;SDS011;61985;51.070;14.064;2022-11-20T09:10:53;18.50;;;6.70;;
73684;SDS011;61985;51.070;14.064;2022-11-20T09:13:20;18.80;;;7.83;;
73684;SDS011;61985;51.070;14.064;2022-11-20T09:15:46;14.50;;;6.53;;
73684;SDS011;61985;51.070;14.064;2022-11-20T09:18:12;16.50;;;6.53;;
73684;SDS011;61985;51.070;14.064;2022-11-20T09:20:37;12.93;;;6.20;;
73684;SDS011;61985;51.070;14.064;2022-11-20T09:23:03;17.97;;;7.13;;
73684;SDS011;61985;51.070;14.064;2022-11-20T09:25:29;16.40;;;7.43;;
73684;SDS011;61985;51.070;14.064;2022-11-20T09:27:59;16.30;;;7.37;;
73684;SDS011;61985;51.070;14.064;2022-11-20T09:30:25;17.00;;;5.30;;
73684;SDS011;61985;51.070;14.064;2022-11-20T09:32:52;13.97;;;6.37;;
73684;SDS011;61985;51.070;14.064;2022-11-20T09:35:18;16.03;;;6.30;;
73684;SDS011;61985;51.070;14.064;2022-11-20T09:37:43;16.77;;;6.67;;
73684;SDS011;61985;51.070;14.064;2022-11-20T09:40:17;20.17;;;8.13;;
73684;SDS011;61985;51.070;14.064;2022-11-20T09:48:42;17.03;;;7.33;;
73684;SDS011;61985;51.070;14.064;2022-11-20T09:51:30;14.63;;;6.17;;
73684;SDS011;61985;51.070;14.064;2022-11-20T10:04:35;15.47;;;6.00;;
73684;SDS011;61985;51.070;14.064;2022-11-20T10:09:57;15.43;;;5.80;;
73684;SDS011;61985;51.070;14.064;2022-11-20T10:12:41;16.80;;;7.27;;
73684;SDS011;61985;51.070;14.064;2022-11-20T10:23:44;20.13;;;8.10;;
73684;SDS011;61985;51.070;14.064;2022-11-20T10:29:33;16.13;;;7.47;;
73684;SDS011;61985;51.070;14.064;2022-11-20T10:32:04;16.48;;;6.82;;
73684;SDS011;61985;51.070;14.064;2022-11-20T10:34:38;16.38;;;6.88;;
73684;SDS011;61985;51.070;14.064;2022-11-20T10:37:22;13.68;;;5.57;;
73684;SDS011;61985;51.070;14.064;2022-11-20T10:39:51;17.33;;;6.88;;
73684;SDS011;61985;51.070;14.064;2022-11-20T10:42:35;15.82;;;7.15;;
73684;SDS011;61985;51.070;14.064;2022-11-20T10:45:16;15.07;;;6.90;;
73684;SDS011;61985;51.070;14.064;2022-11-20T10:47:50;15.02;;;5.65;;
73684;SDS011;61985;51.070;14.064;2022-11-20T10:50:18;14.75;;;7.05;;
73684;SDS011;61985;51.070;14.064;2022-11-20T10:55:46;14.80;;;6.25;;
73684;SDS011;61985;51.070;14.064;2022-11-20T10:58:22;13.48;;;6.00;;
73684;SDS011;61985;51.070;14.064;2022-11-20T11:01:05;11.35;;;5.57;;
73684;SDS011;61985;51.070;14.064;2022-11-20T11:03:38;14.00;;;6.00;;
73684;SDS011;61985;51.070;14.064;2022-11-20T11:08:38;15.75;;;7.40;;
73684;SDS011;61985;51.070;14.064;2022-11-20T11:13:44;14.52;;;6.20;;
73684;SDS011;61985;51.070;14.064;2022-11-20T11:16:24;12.57;;;5.50;;
73684;SDS011;61985;51.070;14.064;2022-11-20T11:18:50;13.80;;;6.88;;
73684;SDS011;61985;51.070;14.064;2022-11-20T11:21:23;14.15;;;6.22;;
73684;SDS011;61985;51.070;14.064;2022-11-20T11:23:57;15.60;;;6.22;;
73684;SDS011;61985;51.070;14.064;2022-11-20T11:26:27;15.55;;;6.65;;
73684;SDS011;61985;51.070;14.064;2022-11-20T11:28:53;15.77;;;7.45;;
73684;SDS011;61985;51.070;14.064;2022-11-20T11:31:27;17.05;;;7.68;;
73684;SDS011;61985;51.070;14.064;2022-11-20T11:34:08;16.60;;;7.07;;
73684;SDS011;61985;51.070;14.064;2022-11-20T11:36:40;13.82;;;6.63;;
73684;SDS011;61985;51.070;14.064;2022-11-20T11:39:10;15.63;;;6.75;;
73684;SDS011;61985;51.070;14.064;2022-11-20T11:41:39;14.82;;;6.70;;
73684;SDS011;61985;51.070;14.064;2022-11-20T11:44:22;15.57;;;7.03;;
73684;SDS011;61985;51.070;14.064;2022-11-20T11:47:26;17.08;;;7.45;;
73684;SDS011;61985;51.070;14.064;2022-11-20T11:52:35;18.58;;;8.40;;
73684;SDS011;61985;51.070;14.064;2022-11-20T11:55:07;17.83;;;7.38;;
73684;SDS011;61985;51.070;14.064;2022-11-20T12:00:17;16.13;;;5.70;;
73684;SDS011;61985;51.070;14.064;2022-11-20T12:05:27;18.70;;;6.22;;
73684;SDS011;61985;51.070;14.064;2022-11-20T12:10:48;17.55;;;6.80;;
73684;SDS011;61985;51.070;14.064;2022-11-20T12:13:39;13.32;;;5.63;;
73684;SDS011;61985;51.070;14.064;2022-11-20T12:16:26;13.45;;;5.80;;
73684;SDS011;61985;51.070;14.064;2022-11-20T12:18:53;15.07;;;6.18;;
73684;SDS011;61985;51.070;14.064;2022-11-20T12:21:20;14.23;;;6.45;;
73684;SDS011;61985;51.070;14.064;2022-11-20T12:32:23;11.80;;;5.20;;
73684;SDS011;61985;51.070;14.064;2022-11-20T12:41:11;12.88;;;5.70;;
73684;SDS011;61985;51.070;14.064;2022-11-20T12:44:05;13.25;;;6.03;;
73684;SDS011;61985;51.070;14.064;2022-11-20T12:50:11;12.80;;;5.15;;
73684;SDS011;61985;51.070;14.064;2022-11-20T12:52:56;13.52;;;5.30;;
73684;SDS011;61985;51.070;14.064;2022-11-20T12:55:33;13.13;;;5.13;;
73684;SDS011;61985;51.070;14.064;2022-11-20T12:58:27;14.15;;;6.47;;
73684;SDS011;61985;51.070;14.064;2022-11-20T13:01:17;14.43;;;6.35;;
73684;SDS011;61985;51.070;14.064;2022-11-20T13:06:36;12.98;;;5.82;;
73684;SDS011;61985;51.070;14.064;2022-11-20T13:09:02;12.60;;;5.72;;
73684;SDS011;61985;51.070;14.064;2022-11-20T13:19:22;16.33;;;9.48;;
73684;SDS011;61985;51.070;14.064;2022-11-20T13:21:49;14.98;;;6.75;;
73684;SDS011;61985;51.070;14.064;2022-11-20T13:26:48;27.48;;;15.90;;
73684;SDS011;61985;51.070;14.064;2022-11-20T13:29:47;20.10;;;10.48;;
73684;SDS011;61985;51.070;14.064;2022-11-20T13:32:25;14.73;;;8.65;;
73684;SDS011;61985;51.070;14.064;2022-11-20T13:34:59;15.65;;;8.75;;
73684;SDS011;61985;51.070;14.064;2022-11-20T13:42:35;21.00;;;8.55;;
73684;SDS011;61985;51.070;14.064;2022-11-20T13:45:09;16.05;;;8.35;;
73684;SDS011;61985;51.070;14.064;2022-11-20T13:47:52;16.00;;;9.55;;
73684;SDS011;61985;51.070;14.064;2022-11-20T13:50:18;29.27;;;15.50;;
73684;SDS011;61985;51.070;14.064;2022-11-20T14:01:08;14.32;;;5.80;;
73684;SDS011;61985;51.070;14.064;2022-11-20T14:03:36;14.43;;;6.88;;
73684;SDS011;61985;51.070;14.064;2022-11-20T14:06:04;17.15;;;8.57;;
73684;SDS011;61985;51.070;14.064;2022-11-20T14:08:48;14.25;;;6.25;;
73684;SDS011;61985;51.070;14.064;2022-11-20T14:11:21;13.55;;;6.82;;
73684;SDS011;61985;51.070;14.064;2022-11-20T14:16:20;19.67;;;10.02;;
73684;SDS011;61985;51.070;14.064;2022-11-20T14:18:47;27.42;;;15.77;;
73684;SDS011;61985;51.070;14.064;2022-11-20T14:21:21;17.15;;;9.05;;
73684;SDS011;61985;51.070;14.064;2022-11-20T14:24:04;27.23;;;12.82;;
73684;SDS011;61985;51.070;14.064;2022-11-20T14:26:31;24.33;;;10.18;;
73684;SDS011;61985;51.070;14.064;2022-11-20T14:28:58;43.17;;;18.13;;
73684;SDS011;61985;51.070;14.064;2022-11-20T14:31:25;19.75;;;9.73;;
73684;SDS011;61985;51.070;14.064;2022-11-20T14:33:53;13.32;;;6.70;;
73684;SDS011;61985;51.070;14.064;2022-11-20T14:36:20;9.85;;;5.65;;
73684;SDS011;61985;51.070;14.064;2022-11-20T14:38:48;11.45;;;6.32;;
73684;SDS011;61985;51.070;14.064;2022-11-20T14:41:21;13.32;;;5.63;;
73684;SDS011;61985;51.070;14.064;2022-11-20T14:43:50;17.88;;;9.80;;
73684;SDS011;61985;51.070;14.064;2022-11-20T14:46:21;15.98;;;10.15;;
73684;SDS011;61985;51.070;14.064;2022-11-20T14:48:54;13.57;;;8.10;;
73684;SDS011;61985;51.070;14.064;2022-11-20T14:53:56;15.60;;;7.32;;
73684;SDS011;61985;51.070;14.064;2022-11-20T14:56:32;13.32;;;6.00;;
73684;SDS011;61985;51.070;14.064;2022-11-20T14:58:57;11.10;;;5.28;;
73684;SDS011;61985;51.070;14.064;2022-11-20T15:01:30;14.95;;;6.40;;
73684;SDS011;61985;51.070;14.064;2022-11-20T15:04:06;11.88;;;5.80;;
73684;SDS011;61985;51.070;14.064;2022-11-20T15:06:35;13.32;;;6.20;;
73684;SDS011;61985;51.070;14.064;2022-11-20T15:09:02;12.77;;;5.75;;
73684;SDS011;61985;51.070;14.064;2022-11-20T15:11:30;10.65;;;5.38;;
73684;SDS011;61985;51.070;14.064;2022-11-20T15:16:39;9.68;;;5.03;;
73684;SDS011;61985;51.070;14.064;2022-11-20T15:19:16;14.23;;;5.25;;
73684;SDS011;61985;51.070;14.064;2022-11-20T15:24:34;11.95;;;6.47;;
73684;SDS011;61985;51.070;14.064;2022-11-20T15:27:00;10.50;;;4.93;;
73684;SDS011;61985;51.070;14.064;2022-11-20T15:29:25;10.70;;;5.43;;
73684;SDS011;61985;51.070;14.064;2022-11-20T15:31:50;13.13;;;6.07;;
73684;SDS011;61985;51.070;14.064;2022-11-20T15:34:17;14.83;;;6.20;;
73684;SDS011;61985;51.070;14.064;2022-11-20T15:36:43;11.00;;;5.17;;
73684;SDS011;61985;51.070;14.064;2022-11-20T15:39:09;20.10;;;9.90;;
73684;SDS011;61985;51.070;14.064;2022-11-20T15:41:36;13.97;;;5.47;;
73684;SDS011;61985;51.070;14.064;2022-11-20T15:44:03;17.80;;;7.23;;
73684;SDS011;61985;51.070;14.064;2022-11-20T15:46:30;13.43;;;6.47;;
73684;SDS011;61985;51.070;14.064;2022-11-20T15:49:03;14.33;;;6.70;;
73684;SDS011;61985;51.070;14.064;2022-11-20T15:54:00;13.47;;;5.70;;
73684;SDS011;61985;51.070;14.064;2022-11-20T15:56:27;14.43;;;5.33;;
73684;SDS011;61985;51.070;14.064;2022-11-20T15:58:52;12.27;;;5.40;;
73684;SDS011;61985;51.070;14.064;2022-11-20T16:01:18;14.47;;;5.93;;
73684;SDS011;61985;51.070;14.064;2022-11-20T16:03:45;13.57;;;5.57;;
73684;SDS011;61985;51.070;14.064;2022-11-20T16:06:11;14.73;;;6.00;;
73684;SDS011;61985;51.070;14.064;2022-11-20T16:08:36;13.60;;;5.63;;
73684;SDS011;61985;51.070;14.064;2022-11-20T16:11:02;16.13;;;5.93;;
73684;SDS011;61985;51.070;14.064;2022-11-20T16:13:28;11.07;;;4.43;;
73684;SDS011;61985;51.070;14.064;2022-11-20T16:16:25;11.10;;;5.77;;
73684;SDS011;61985;51.070;14.064;2022-11-20T16:18:53;12.17;;;5.83;;
73684;SDS011;61985;51.070;14.064;2022-11-20T16:21:19;12.40;;;5.30;;
73684;SDS011;61985;51.070;14.064;2022-11-20T16:23:45;10.83;;;4.43;;
73684;SDS011;61985;51.070;14.064;2022-11-20T16:26:17;10.83;;;5.03;;
73684;SDS011;61985;51.070;14.064;2022-11-20T16:28:43;11.63;;;5.17;;
73684;SDS011;61985;51.070;14.064;2022-11-20T16:31:13;12.27;;;4.83;;
73684;SDS011;61985;51.070;14.064;2022-11-20T16:33:39;10.03;;;4.40;;
73684;SDS011;61985;51.070;14.064;2022-11-20T16:36:06;12.10;;;5.53;;
73684;SDS011;61985;51.070;14.064;2022-11-20T16:38:41;10.83;;;4.53;;
73684;SDS011;61985;51.070;14.064;2022-11-20T16:41:07;9.47;;;4.10;;
73684;SDS011;61985;51.070;14.064;2022-11-20T16:44:01;11.23;;;5.60;;
73684;SDS011;61985;51.070;14.064;2022-11-20T16:46:31;12.60;;;5.57;;
73684;SDS011;61985;51.070;14.064;2022-11-20T16:49:12;13.97;;;4.60;;
73684;SDS011;61985;51.070;14.064;2022-11-20T16:51:38;10.40;;;4.70;;